createdAt,value
2023-04-09T00:00:35.418Z,6.55
2023-04-09T00:01:35.356Z,6.55
2023-04-09T00:02:35.299Z,6.62
2023-04-09T00:03:35.283Z,6.60
2023-04-09T00:04:35.121Z,6.68
2023-04-09T00:05:34.995Z,6.50
2023-04-09T00:06:34.914Z,6.57
2023-04-09T00:07:34.836Z,6.59
2023-04-09T00:08:34.750Z,6.52
2023-04-09T00:09:34.672Z,6.54
2023-04-09T00:10:34.582Z,6.57
2023-04-09T00:11:34.495Z,6.51
2023-04-09T00:12:34.427Z,6.50
2023-04-09T00:13:39.006Z,6.59
2023-04-09T00:14:34.263Z,6.54
2023-04-09T00:15:34.166Z,6.60
2023-04-09T00:16:34.105Z,6.52
2023-04-09T00:17:34.021Z,6.48
2023-04-09T00:18:33.917Z,6.59
2023-04-09T00:19:33.838Z,6.54
2023-04-09T00:20:33.750Z,6.60
2023-04-09T00:21:33.663Z,6.60
2023-04-09T00:22:33.588Z,6.57
2023-04-09T00:23:33.507Z,6.62
2023-04-09T00:24:33.425Z,6.59
2023-04-09T00:25:33.329Z,6.59
2023-04-09T00:26:33.263Z,6.65
2023-04-09T00:27:33.167Z,6.60
2023-04-09T00:28:33.094Z,6.59
2023-04-09T00:29:33.010Z,6.62
2023-04-09T00:30:32.922Z,6.51
2023-04-09T00:31:32.849Z,6.57
2023-04-09T00:32:32.778Z,6.55
2023-04-09T00:33:32.691Z,6.45
2023-04-09T00:34:32.587Z,6.39
2023-04-09T00:35:32.534Z,6.37
2023-04-09T00:36:32.422Z,6.41
2023-04-09T00:37:32.341Z,6.36
2023-04-09T00:38:32.268Z,6.37
2023-04-09T00:39:32.174Z,6.41
2023-04-09T00:40:32.093Z,6.37
2023-04-09T00:41:32.001Z,6.37
2023-04-09T00:42:31.921Z,6.42
2023-04-09T00:43:31.829Z,6.47
2023-04-09T00:44:31.758Z,6.48
2023-04-09T00:45:31.686Z,6.39
2023-04-09T00:46:31.584Z,6.44
2023-04-09T00:47:31.561Z,6.47
2023-04-09T00:48:31.413Z,6.41
2023-04-09T00:49:31.343Z,6.42
2023-04-09T00:50:31.273Z,6.39
2023-04-09T00:51:31.170Z,6.39
2023-04-09T00:52:31.093Z,6.42
2023-04-09T00:53:30.999Z,6.36
2023-04-09T00:54:30.925Z,6.39
2023-04-09T00:55:30.833Z,6.33
2023-04-09T00:56:30.748Z,6.34
2023-04-09T00:57:30.668Z,6.30
2023-04-09T00:58:30.583Z,6.27
2023-04-09T00:59:30.512Z,6.26
2023-04-09T01:00:30.423Z,6.29
2023-04-09T01:01:30.526Z,6.24
2023-04-09T01:02:30.373Z,6.26
2023-04-09T01:03:30.265Z,6.26
2023-04-09T01:04:30.083Z,6.24
2023-04-09T01:05:29.996Z,6.26
2023-04-09T01:06:29.913Z,6.32
2023-04-09T01:07:29.839Z,6.30
2023-04-09T01:08:29.766Z,6.29
2023-04-09T01:09:29.662Z,6.37
2023-04-09T01:10:29.583Z,6.34
2023-04-09T01:11:29.499Z,6.34
2023-04-09T01:12:29.415Z,6.26
2023-04-09T01:13:29.326Z,6.36
2023-04-09T01:14:29.249Z,6.33
2023-04-09T01:15:29.163Z,6.36
2023-04-09T01:16:29.165Z,6.41
2023-04-09T01:17:29.037Z,6.36
2023-04-09T01:18:28.918Z,6.36
2023-04-09T01:19:28.829Z,6.34
2023-04-09T01:20:28.743Z,6.21
2023-04-09T01:21:28.671Z,6.26
2023-04-09T01:22:28.587Z,6.21
2023-04-09T01:23:28.505Z,6.14
2023-04-09T01:24:28.416Z,6.15
2023-04-09T01:25:28.327Z,6.18
2023-04-09T01:26:28.247Z,6.21
2023-04-09T01:27:28.160Z,6.13
2023-04-09T01:28:28.077Z,6.10
2023-04-09T01:29:27.993Z,6.26
2023-04-09T01:30:27.955Z,6.22
2023-04-09T01:31:27.834Z,6.24
2023-04-09T01:32:27.778Z,6.27
2023-04-09T01:33:27.660Z,6.17
2023-04-09T01:34:27.601Z,6.17
2023-04-09T01:35:27.494Z,6.27
2023-04-09T01:36:27.413Z,6.24
2023-04-09T01:37:27.328Z,6.22
2023-04-09T01:38:27.241Z,6.24
2023-04-09T01:39:27.172Z,6.24
2023-04-09T01:40:27.077Z,6.26
2023-04-09T01:41:26.992Z,6.24
2023-04-09T01:42:26.911Z,6.24
2023-04-09T01:43:26.831Z,6.27
2023-04-09T01:44:26.746Z,6.21
2023-04-09T01:45:26.660Z,6.27
2023-04-09T01:46:26.604Z,6.29
2023-04-09T01:47:26.542Z,6.29
2023-04-09T01:48:26.422Z,6.22
2023-04-09T01:49:26.332Z,6.18
2023-04-09T01:50:26.249Z,6.10
2023-04-09T01:51:26.159Z,6.17
2023-04-09T01:52:26.086Z,6.13
2023-04-09T01:53:25.992Z,6.15
2023-04-09T01:54:25.923Z,6.15
2023-04-09T01:55:25.829Z,6.14
2023-04-09T01:56:25.745Z,6.15
2023-04-09T01:57:25.659Z,6.15
2023-04-09T01:58:25.583Z,6.11
2023-04-09T01:59:25.508Z,6.14
2023-04-09T02:00:25.420Z,6.14
2023-04-09T02:01:25.385Z,6.04
2023-04-09T02:02:25.327Z,6.07
2023-04-09T02:03:25.211Z,6.13
2023-04-09T02:04:25.077Z,6.04
2023-04-09T02:05:24.994Z,6.07
2023-04-09T02:06:24.908Z,6.08
2023-04-09T02:07:24.822Z,6.07
2023-04-09T02:08:24.741Z,6.07
2023-04-09T02:09:24.664Z,6.03
2023-04-09T02:10:24.574Z,6.10
2023-04-09T02:11:24.490Z,6.11
2023-04-09T02:12:24.405Z,6.04
2023-04-09T02:13:24.325Z,6.06
2023-04-09T02:14:24.245Z,6.03
2023-04-09T02:15:24.159Z,5.95
2023-04-09T02:16:24.073Z,5.97
2023-04-09T02:17:24.009Z,5.96
2023-04-09T02:18:23.908Z,5.96
2023-04-09T02:19:23.819Z,5.78
2023-04-09T02:20:23.755Z,5.85
2023-04-09T02:21:23.653Z,5.86
2023-04-09T02:22:23.572Z,5.80
2023-04-09T02:23:23.498Z,5.81
2023-04-09T02:24:23.407Z,5.80
2023-04-09T02:25:23.321Z,5.77
2023-04-09T02:26:23.240Z,5.71
2023-04-09T02:27:23.278Z,5.56
2023-04-09T02:28:23.085Z,5.59
2023-04-09T02:29:22.990Z,5.63
2023-04-09T02:30:22.907Z,5.56
2023-04-09T02:31:22.867Z,5.57
2023-04-09T02:32:22.814Z,5.63
2023-04-09T02:33:22.648Z,5.60
2023-04-09T02:34:22.571Z,5.56
2023-04-09T02:35:22.493Z,5.62
2023-04-09T02:36:22.402Z,5.65
2023-04-09T02:37:22.319Z,5.56
2023-04-09T02:38:22.236Z,5.57
2023-04-09T02:39:22.174Z,5.57
2023-04-09T02:40:22.072Z,5.50
2023-04-09T02:41:21.989Z,5.59
2023-04-09T02:42:21.903Z,5.56
2023-04-09T02:43:21.818Z,5.53
2023-04-09T02:44:21.732Z,5.60
2023-04-09T02:45:21.646Z,5.54
2023-04-09T02:46:21.582Z,5.60
2023-04-09T02:47:21.490Z,5.57
2023-04-09T02:48:21.397Z,5.60
2023-04-09T02:49:21.312Z,5.57
2023-04-09T02:50:21.306Z,5.63
2023-04-09T02:51:21.149Z,5.50
2023-04-09T02:52:21.067Z,5.52
2023-04-09T02:53:20.979Z,5.60
2023-04-09T02:54:20.900Z,5.59
2023-04-09T02:55:20.813Z,5.65
2023-04-09T02:56:20.734Z,5.52
2023-04-09T02:57:20.641Z,5.47
2023-04-09T02:58:20.567Z,5.57
2023-04-09T02:59:20.485Z,5.56
2023-04-09T03:00:20.398Z,5.52
2023-04-09T03:01:20.365Z,5.50
2023-04-09T03:02:20.315Z,5.54
2023-04-09T03:03:20.309Z,5.56
2023-04-09T03:04:20.132Z,5.49
2023-04-09T03:05:19.980Z,5.57
2023-04-09T03:06:19.904Z,5.54
2023-04-09T03:07:19.827Z,5.52
2023-04-09T03:08:19.740Z,5.49
2023-04-09T03:09:19.643Z,5.35
2023-04-09T03:10:19.562Z,5.45
2023-04-09T03:11:19.473Z,5.39
2023-04-09T03:12:19.394Z,5.38
2023-04-09T03:13:19.305Z,5.36
2023-04-09T03:14:19.221Z,5.36
2023-04-09T03:15:19.154Z,5.41
2023-04-09T03:16:19.147Z,5.41
2023-04-09T03:17:18.972Z,5.31
2023-04-09T03:18:18.887Z,5.34
2023-04-09T03:19:18.806Z,5.31
2023-04-09T03:20:18.723Z,5.24
2023-04-09T03:21:18.635Z,5.26
2023-04-09T03:22:18.556Z,5.21
2023-04-09T03:23:18.469Z,5.10
2023-04-09T03:24:18.384Z,4.88
2023-04-09T03:25:18.299Z,4.76
2023-04-09T03:26:18.220Z,4.69
2023-04-09T03:27:18.132Z,4.65
2023-04-09T03:28:18.055Z,4.55
2023-04-09T03:29:17.960Z,4.55
2023-04-09T03:30:17.876Z,4.58
2023-04-09T03:31:17.835Z,4.61
2023-04-09T03:32:19.076Z,4.52
2023-04-09T03:33:17.627Z,4.58
2023-04-09T03:34:17.540Z,4.56
2023-04-09T03:35:17.465Z,4.56
2023-04-09T03:36:17.375Z,4.64
2023-04-09T03:37:17.289Z,4.58
2023-04-09T03:38:17.213Z,4.52
2023-04-09T03:39:17.124Z,4.25
2023-04-09T03:40:17.051Z,4.19
2023-04-09T03:41:16.957Z,4.22
2023-04-09T03:42:16.871Z,4.05
2023-04-09T03:43:16.792Z,4.08
2023-04-09T03:44:16.706Z,4.11
2023-04-09T03:45:16.617Z,4.04
2023-04-09T03:46:16.563Z,4.11
2023-04-09T03:47:16.454Z,4.10
2023-04-09T03:48:16.366Z,4.10
2023-04-09T03:49:16.282Z,4.16
2023-04-09T03:50:16.198Z,4.15
2023-04-09T03:51:16.114Z,4.19
2023-04-09T03:52:16.028Z,4.26
2023-04-09T03:53:15.945Z,4.20
2023-04-09T03:54:15.858Z,4.32
2023-04-09T03:55:15.786Z,4.26
2023-04-09T03:56:15.687Z,4.29
2023-04-09T03:57:15.601Z,4.36
2023-04-09T03:58:15.522Z,4.37
2023-04-09T03:59:15.433Z,4.38
2023-04-09T04:00:15.348Z,4.37
2023-04-09T04:01:15.265Z,4.36
2023-04-09T04:02:15.247Z,4.36
2023-04-09T04:03:15.219Z,4.25
2023-04-09T04:04:15.168Z,4.20
2023-04-09T04:05:14.932Z,4.23
2023-04-09T04:06:14.839Z,4.20
2023-04-09T04:07:14.771Z,4.23
2023-04-09T04:08:14.669Z,4.19
2023-04-09T04:09:14.587Z,4.25
2023-04-09T04:10:14.506Z,4.25
2023-04-09T04:11:14.441Z,4.28
2023-04-09T04:12:14.339Z,4.20
2023-04-09T04:13:14.279Z,4.19
2023-04-09T04:14:14.164Z,4.22
2023-04-09T04:15:14.088Z,4.20
2023-04-09T04:16:14.017Z,4.16
2023-04-09T04:17:13.925Z,4.22
2023-04-09T04:18:13.824Z,4.15
2023-04-09T04:19:13.747Z,4.25
2023-04-09T04:20:13.663Z,4.19
2023-04-09T04:21:13.572Z,4.22
2023-04-09T04:22:13.484Z,4.12
2023-04-09T04:23:13.427Z,4.15
2023-04-09T04:24:13.320Z,4.15
2023-04-09T04:25:13.236Z,4.12
2023-04-09T04:26:13.148Z,4.19
2023-04-09T04:27:13.076Z,4.08
2023-04-09T04:28:12.986Z,4.04
2023-04-09T04:29:12.900Z,4.04
2023-04-09T04:30:12.815Z,4.00
2023-04-09T04:31:12.783Z,4.01
2023-04-09T04:32:12.643Z,4.02
2023-04-09T04:33:12.559Z,4.07
2023-04-09T04:34:12.477Z,4.04
2023-04-09T04:35:12.399Z,4.04
2023-04-09T04:36:12.305Z,4.01
2023-04-09T04:37:12.226Z,4.04
2023-04-09T04:38:12.144Z,4.07
2023-04-09T04:39:12.055Z,4.00
2023-04-09T04:40:11.967Z,3.97
2023-04-09T04:41:11.891Z,3.98
2023-04-09T04:42:11.803Z,4.05
2023-04-09T04:43:11.714Z,4.04
2023-04-09T04:44:11.632Z,3.94
2023-04-09T04:45:11.547Z,4.01
2023-04-09T04:46:11.497Z,4.08
2023-04-09T04:47:11.383Z,4.07
2023-04-09T04:48:11.293Z,3.97
2023-04-09T04:49:11.207Z,4.00
2023-04-09T04:50:11.122Z,3.98
2023-04-09T04:51:11.075Z,3.98
2023-04-09T04:52:10.953Z,3.89
2023-04-09T04:53:10.866Z,3.87
2023-04-09T04:54:10.781Z,3.86
2023-04-09T04:55:10.702Z,3.89
2023-04-09T04:56:10.617Z,3.87
2023-04-09T04:57:10.537Z,3.82
2023-04-09T04:58:10.443Z,3.79
2023-04-09T04:59:10.361Z,3.74
2023-04-09T05:00:10.278Z,3.72
2023-04-09T05:01:10.228Z,3.74
2023-04-09T05:02:10.219Z,3.72
2023-04-09T05:03:10.133Z,3.74
2023-04-09T05:04:09.934Z,3.74
2023-04-09T05:05:09.852Z,3.77
2023-04-09T05:06:09.765Z,3.69
2023-04-09T05:07:09.711Z,3.69
2023-04-09T05:08:09.600Z,3.69
2023-04-09T05:09:10.048Z,3.75
2023-04-09T05:10:09.425Z,3.68
2023-04-09T05:11:09.344Z,3.62
2023-04-09T05:12:09.261Z,3.62
2023-04-09T05:13:09.168Z,3.74
2023-04-09T05:14:09.087Z,3.62
2023-04-09T05:15:09.007Z,3.66
2023-04-09T05:16:08.947Z,3.64
2023-04-09T05:17:08.832Z,3.66
2023-04-09T05:18:08.750Z,3.65
2023-04-09T05:19:08.667Z,3.66
2023-04-09T05:20:08.589Z,3.61
2023-04-09T05:21:08.493Z,3.53
2023-04-09T05:22:08.405Z,3.50
2023-04-09T05:23:08.323Z,3.59
2023-04-09T05:24:08.237Z,3.61
2023-04-09T05:25:08.153Z,3.56
2023-04-09T05:26:08.071Z,3.53
2023-04-09T05:27:07.988Z,3.64
2023-04-09T05:28:07.897Z,3.65
2023-04-09T05:29:07.815Z,3.59
2023-04-09T05:30:07.743Z,3.65
2023-04-09T05:31:07.754Z,3.62
2023-04-09T05:32:07.561Z,3.62
2023-04-09T05:33:07.479Z,3.48
2023-04-09T05:34:07.394Z,3.51
2023-04-09T05:35:07.306Z,3.44
2023-04-09T05:36:07.241Z,3.51
2023-04-09T05:37:07.137Z,3.56
2023-04-09T05:38:07.056Z,3.57
2023-04-09T05:39:06.987Z,3.54
2023-04-09T05:40:06.888Z,3.51
2023-04-09T05:41:06.804Z,3.59
2023-04-09T05:42:06.742Z,3.50
2023-04-09T05:43:06.637Z,3.48
2023-04-09T05:44:06.545Z,3.50
2023-04-09T05:45:06.456Z,3.56
2023-04-09T05:46:06.403Z,3.62
2023-04-09T05:47:06.299Z,3.59
2023-04-09T05:48:06.200Z,3.68
2023-04-09T05:49:06.119Z,3.57
2023-04-09T05:50:06.062Z,3.66
2023-04-09T05:51:05.949Z,3.68
2023-04-09T05:52:05.873Z,3.65
2023-04-09T05:53:05.780Z,3.62
2023-04-09T05:54:05.697Z,3.62
2023-04-09T05:55:05.614Z,3.68
2023-04-09T05:56:05.522Z,3.74
2023-04-09T05:57:05.445Z,3.75
2023-04-09T05:58:05.369Z,3.72
2023-04-09T05:59:05.266Z,3.74
2023-04-09T06:00:05.193Z,3.79
2023-04-09T06:01:05.098Z,3.82
2023-04-09T06:02:05.145Z,3.83
2023-04-09T06:03:05.037Z,3.89
2023-04-09T06:04:05.261Z,3.83
2023-04-09T06:05:04.782Z,3.89
2023-04-09T06:06:04.673Z,3.82
2023-04-09T06:07:04.593Z,3.98
2023-04-09T06:08:04.508Z,4.01
2023-04-09T06:09:04.421Z,4.04
2023-04-09T06:10:04.342Z,4.02
2023-04-09T06:11:04.254Z,4.11
2023-04-09T06:12:04.174Z,4.16
2023-04-09T06:13:04.085Z,4.15
2023-04-09T06:14:03.997Z,4.15
2023-04-09T06:15:03.948Z,4.20
2023-04-09T06:16:03.853Z,4.20
2023-04-09T06:17:03.752Z,4.23
2023-04-09T06:18:03.711Z,4.30
2023-04-09T06:19:03.574Z,4.36
2023-04-09T06:20:03.482Z,4.32
2023-04-09T06:21:03.403Z,4.41
2023-04-09T06:22:03.319Z,4.44
2023-04-09T06:23:03.228Z,4.48
2023-04-09T06:24:03.145Z,4.50
2023-04-09T06:25:03.063Z,4.54
2023-04-09T06:26:02.974Z,4.59
2023-04-09T06:27:02.896Z,4.55
2023-04-09T06:28:02.846Z,4.64
2023-04-09T06:29:02.725Z,4.64
2023-04-09T06:30:02.642Z,4.65
2023-04-09T06:31:02.574Z,4.69
2023-04-09T06:32:02.466Z,4.68
2023-04-09T06:33:02.495Z,4.83
2023-04-09T06:34:02.292Z,4.85
2023-04-09T06:35:02.233Z,4.91
2023-04-09T06:36:02.157Z,4.88
2023-04-09T06:37:02.046Z,5.03
2023-04-09T06:38:01.962Z,5.02
2023-04-09T06:39:01.876Z,5.05
2023-04-09T06:40:01.845Z,5.06
2023-04-09T06:41:01.720Z,5.23
2023-04-09T06:42:01.619Z,5.18
2023-04-09T06:43:01.592Z,5.17
2023-04-09T06:44:01.452Z,5.28
2023-04-09T06:45:01.366Z,5.35
2023-04-09T06:46:01.315Z,5.32
2023-04-09T06:47:01.200Z,5.29
2023-04-09T06:48:01.172Z,5.41
2023-04-09T06:49:01.034Z,5.42
2023-04-09T06:50:00.945Z,5.42
2023-04-09T06:51:00.863Z,5.35
2023-04-09T06:52:00.772Z,5.44
2023-04-09T06:53:00.688Z,5.47
2023-04-09T06:54:00.700Z,5.39
2023-04-09T06:55:00.535Z,5.52
2023-04-09T06:56:00.472Z,5.67
2023-04-09T06:57:00.363Z,5.72
2023-04-09T06:58:00.272Z,5.63
2023-04-09T06:59:00.190Z,5.65
2023-04-09T07:00:00.110Z,5.75
2023-04-09T07:01:00.077Z,5.85
2023-04-09T07:02:00.012Z,5.81
2023-04-09T07:02:59.939Z,5.99
2023-04-09T07:03:59.941Z,5.93
2023-04-09T07:04:59.679Z,5.99
2023-04-09T07:05:59.592Z,6.00
2023-04-09T07:06:59.509Z,6.13
2023-04-09T07:07:59.429Z,6.15
2023-04-09T07:08:59.345Z,6.13
2023-04-09T07:09:59.264Z,6.18
2023-04-09T07:10:59.176Z,6.30
2023-04-09T07:11:59.093Z,6.36
2023-04-09T07:12:59.004Z,6.44
2023-04-09T07:13:58.936Z,6.42
2023-04-09T07:14:58.841Z,6.47
2023-04-09T07:15:58.781Z,6.52
2023-04-09T07:16:58.666Z,6.66
2023-04-09T07:17:58.713Z,6.68
2023-04-09T07:18:58.499Z,6.70
2023-04-09T07:19:58.443Z,6.84
2023-04-09T07:20:59.275Z,6.91
2023-04-09T07:21:58.252Z,6.98
2023-04-09T07:22:58.173Z,7.03
2023-04-09T07:23:58.084Z,7.01
2023-04-09T07:24:58.000Z,7.06
2023-04-09T07:25:57.928Z,7.17
2023-04-09T07:26:57.833Z,7.20
2023-04-09T07:27:57.753Z,7.30
2023-04-09T07:28:57.673Z,7.37
2023-04-09T07:29:57.836Z,7.57
2023-04-09T07:30:57.502Z,7.60
2023-04-09T07:31:57.423Z,7.73
2023-04-09T07:32:57.356Z,7.72
2023-04-09T07:33:57.254Z,7.88
2023-04-09T07:34:57.165Z,7.83
2023-04-09T07:35:57.117Z,8.06
2023-04-09T07:36:56.997Z,8.12
2023-04-09T07:37:56.918Z,8.18
2023-04-09T07:38:56.838Z,8.18
2023-04-09T07:39:56.758Z,8.24
2023-04-09T07:40:56.674Z,8.37
2023-04-09T07:41:58.212Z,8.55
2023-04-09T07:42:56.507Z,8.60
2023-04-09T07:43:56.415Z,8.65
2023-04-09T07:44:56.329Z,8.75
2023-04-09T07:45:56.249Z,8.85
2023-04-09T07:46:56.209Z,8.93
2023-04-09T07:47:56.107Z,8.88
2023-04-09T07:48:56.000Z,9.12
2023-04-09T07:49:55.925Z,9.17
2023-04-09T07:50:55.833Z,9.22
2023-04-09T07:51:55.761Z,9.17
2023-04-09T07:52:55.669Z,9.32
2023-04-09T07:53:55.589Z,9.32
2023-04-09T07:54:55.505Z,9.37
2023-04-09T07:55:55.427Z,9.42
2023-04-09T07:56:55.343Z,9.52
2023-04-09T07:57:55.262Z,9.61
2023-04-09T07:58:55.250Z,9.65
2023-04-09T07:59:55.097Z,9.72
2023-04-09T08:00:55.016Z,9.70
2023-04-09T08:01:55.002Z,9.72
2023-04-09T08:02:55.159Z,9.79
2023-04-09T08:03:54.880Z,9.85
2023-04-09T08:04:54.806Z,9.97
2023-04-09T08:05:54.609Z,10.04
2023-04-09T08:06:54.520Z,10.21
2023-04-09T08:07:54.483Z,10.36
2023-04-09T08:08:54.629Z,10.40
2023-04-09T08:09:54.279Z,10.44
2023-04-09T08:10:54.196Z,10.49
2023-04-09T08:11:54.146Z,10.44
2023-04-09T08:12:54.062Z,10.53
2023-04-09T08:13:53.957Z,10.49
2023-04-09T08:14:53.876Z,10.58
2023-04-09T08:15:53.791Z,10.67
2023-04-09T08:16:53.777Z,10.74
2023-04-09T08:17:53.658Z,10.63
2023-04-09T08:18:53.698Z,10.73
2023-04-09T08:19:53.467Z,10.69
2023-04-09T08:20:53.432Z,10.81
2023-04-09T08:21:53.313Z,10.69
2023-04-09T08:22:53.226Z,10.66
2023-04-09T08:23:53.145Z,10.69
2023-04-09T08:24:53.067Z,10.69
2023-04-09T08:25:53.004Z,10.84
2023-04-09T08:26:52.951Z,10.91
2023-04-09T08:27:52.824Z,10.99
2023-04-09T08:28:52.994Z,11.00
2023-04-09T08:29:52.656Z,10.99
2023-04-09T08:30:52.577Z,10.85
2023-04-09T08:31:52.534Z,11.03
2023-04-09T08:32:52.440Z,11.05
2023-04-09T08:33:52.337Z,11.11
2023-04-09T08:34:52.266Z,11.13
2023-04-09T08:35:52.173Z,11.20
2023-04-09T08:36:52.158Z,11.31
2023-04-09T08:37:52.014Z,11.38
2023-04-09T08:38:52.222Z,11.47
2023-04-09T08:39:51.850Z,11.59
2023-04-09T08:40:51.766Z,11.69
2023-04-09T08:41:51.686Z,11.83
2023-04-09T08:42:51.606Z,11.94
2023-04-09T08:43:57.558Z,11.95
2023-04-09T08:44:51.450Z,11.98
2023-04-09T08:45:51.378Z,11.94
2023-04-09T08:46:51.287Z,11.93
2023-04-09T08:47:51.284Z,11.93
2023-04-09T08:48:51.277Z,11.95
2023-04-09T08:49:51.048Z,11.97
2023-04-09T08:50:50.971Z,11.83
2023-04-09T08:51:50.885Z,11.95
2023-04-09T08:52:50.799Z,11.95
2023-04-09T08:53:50.723Z,12.08
2023-04-09T08:54:50.673Z,11.98
2023-04-09T08:55:50.567Z,12.06
2023-04-09T08:56:50.490Z,12.06
2023-04-09T08:57:50.405Z,12.06
2023-04-09T08:58:50.364Z,12.06
2023-04-09T08:59:50.248Z,11.84
2023-04-09T09:00:50.171Z,11.79
2023-04-09T09:01:50.133Z,11.87
2023-04-09T09:02:50.087Z,11.89
2023-04-09T09:03:50.014Z,11.86
2023-04-09T09:04:49.849Z,11.95
2023-04-09T09:05:49.778Z,11.93
2023-04-09T09:06:49.688Z,12.00
2023-04-09T09:07:49.605Z,11.95
2023-04-09T09:08:49.522Z,11.97
2023-04-09T09:09:49.441Z,11.98
2023-04-09T09:10:49.364Z,11.97
2023-04-09T09:11:49.286Z,12.06
2023-04-09T09:12:49.206Z,12.11
2023-04-09T09:13:49.126Z,12.33
2023-04-09T09:14:49.043Z,12.51
2023-04-09T09:15:48.966Z,12.60
2023-04-09T09:16:48.895Z,12.59
2023-04-09T09:17:48.820Z,12.55
2023-04-09T09:18:48.728Z,12.64
2023-04-09T09:19:48.648Z,12.69
2023-04-09T09:20:48.569Z,12.67
2023-04-09T09:21:48.505Z,12.67
2023-04-09T09:22:49.164Z,12.59
2023-04-09T09:23:48.413Z,12.48
2023-04-09T09:24:49.806Z,12.45
2023-04-09T09:25:48.168Z,12.55
2023-04-09T09:26:48.091Z,12.51
2023-04-09T09:27:48.015Z,12.59
2023-04-09T09:28:47.925Z,12.52
2023-04-09T09:29:47.849Z,12.42
2023-04-09T09:30:49.168Z,12.52
2023-04-09T09:31:47.721Z,12.46
2023-04-09T09:32:47.679Z,12.48
2023-04-09T09:33:47.549Z,12.49
2023-04-09T09:34:47.456Z,12.60
2023-04-09T09:35:47.382Z,12.74
2023-04-09T09:36:47.308Z,12.91
2023-04-09T09:37:47.220Z,13.19
2023-04-09T09:38:47.173Z,13.45
2023-04-09T09:39:47.067Z,13.41
2023-04-09T09:40:46.982Z,13.28
2023-04-09T09:41:46.988Z,13.17
2023-04-09T09:42:46.819Z,13.00
2023-04-09T09:43:46.754Z,13.00
2023-04-09T09:44:46.671Z,12.84
2023-04-09T09:45:46.611Z,12.71
2023-04-09T09:46:46.509Z,12.79
2023-04-09T09:47:46.473Z,12.86
2023-04-09T09:48:46.349Z,12.85
2023-04-09T09:49:46.278Z,12.92
2023-04-09T09:50:46.208Z,12.77
2023-04-09T09:51:46.120Z,12.67
2023-04-09T09:52:46.039Z,12.70
2023-04-09T09:53:48.380Z,12.84
2023-04-09T09:54:45.878Z,12.88
2023-04-09T09:55:45.799Z,12.96
2023-04-09T09:56:45.716Z,13.14
2023-04-09T09:57:45.657Z,13.24
2023-04-09T09:58:45.560Z,13.40
2023-04-09T09:59:45.484Z,13.41
2023-04-09T10:00:45.404Z,13.52
2023-04-09T10:01:45.415Z,13.55
2023-04-09T10:02:45.387Z,13.58
2023-04-09T10:03:45.175Z,13.48
2023-04-09T10:04:45.177Z,13.50
2023-04-09T10:05:45.006Z,13.56
2023-04-09T10:06:44.929Z,13.68
2023-04-09T10:07:44.855Z,13.71
2023-04-09T10:08:44.776Z,13.87
2023-04-09T10:09:44.695Z,13.87
2023-04-09T10:10:44.620Z,13.78
2023-04-09T10:11:44.534Z,13.61
2023-04-09T10:12:44.490Z,13.76
2023-04-09T10:13:44.386Z,13.62
2023-04-09T10:14:44.293Z,13.52
2023-04-09T10:15:44.270Z,13.41
2023-04-09T10:16:44.137Z,13.21
2023-04-09T10:17:44.102Z,13.19
2023-04-09T10:18:43.990Z,13.07
2023-04-09T10:19:43.914Z,12.94
2023-04-09T10:20:43.820Z,12.96
2023-04-09T10:21:43.753Z,13.19
2023-04-09T10:22:43.668Z,13.24
2023-04-09T10:23:43.593Z,13.38
2023-04-09T10:24:43.511Z,13.50
2023-04-09T10:25:43.448Z,13.65
2023-04-09T10:26:43.355Z,13.71
2023-04-09T10:27:43.273Z,13.81
2023-04-09T10:28:43.203Z,13.83
2023-04-09T10:29:43.116Z,13.78
2023-04-09T10:30:43.038Z,13.56
2023-04-09T10:31:43.015Z,13.45
2023-04-09T10:32:42.883Z,13.11
2023-04-09T10:33:42.802Z,12.94
2023-04-09T10:34:42.746Z,12.82
2023-04-09T10:35:42.709Z,12.78
2023-04-09T10:36:42.561Z,12.84
2023-04-09T10:37:42.483Z,12.92
2023-04-09T10:38:42.408Z,12.94
2023-04-09T10:39:42.345Z,13.09
2023-04-09T10:40:42.289Z,13.00
2023-04-09T10:41:42.213Z,13.21
2023-04-09T10:42:42.160Z,13.19
2023-04-09T10:43:42.026Z,13.36
2023-04-09T10:44:42.116Z,13.59
2023-04-09T10:45:41.899Z,13.86
2023-04-09T10:46:41.804Z,13.87
2023-04-09T10:47:41.758Z,13.95
2023-04-09T10:48:41.628Z,13.98
2023-04-09T10:49:41.545Z,13.87
2023-04-09T10:50:41.463Z,13.81
2023-04-09T10:51:41.384Z,13.92
2023-04-09T10:52:41.304Z,14.09
2023-04-09T10:53:41.233Z,14.24
2023-04-09T10:54:41.147Z,14.24
2023-04-09T10:55:41.083Z,14.39
2023-04-09T10:56:40.989Z,14.36
2023-04-09T10:57:40.917Z,14.36
2023-04-09T10:58:40.836Z,14.31
2023-04-09T10:59:40.760Z,14.11
2023-04-09T11:00:40.714Z,13.83
2023-04-09T11:01:40.677Z,13.71
2023-04-09T11:02:40.674Z,13.59
2023-04-09T11:03:40.546Z,13.48
2023-04-09T11:04:40.391Z,13.47
2023-04-09T11:05:40.323Z,13.55
2023-04-09T11:06:40.208Z,13.50
2023-04-09T11:07:40.127Z,13.50
2023-04-09T11:08:40.060Z,13.38
2023-04-09T11:09:39.988Z,13.36
2023-04-09T11:10:39.892Z,13.32
2023-04-09T11:11:39.813Z,13.33
2023-04-09T11:12:39.729Z,13.36
2023-04-09T11:13:39.652Z,13.32
2023-04-09T11:14:39.578Z,13.36
2023-04-09T11:15:39.502Z,13.40
2023-04-09T11:16:39.509Z,13.29
2023-04-09T11:17:39.378Z,13.33
2023-04-09T11:18:39.262Z,13.38
2023-04-09T11:19:39.182Z,13.44
2023-04-09T11:20:39.102Z,13.44
2023-04-09T11:21:39.021Z,13.45
2023-04-09T11:22:38.949Z,13.52
2023-04-09T11:23:38.866Z,13.53
2023-04-09T11:24:38.800Z,13.63
2023-04-09T11:25:38.709Z,13.44
2023-04-09T11:26:38.628Z,13.37
2023-04-09T11:27:38.581Z,13.59
2023-04-09T11:28:38.468Z,13.91
2023-04-09T11:29:38.391Z,14.11
2023-04-09T11:30:38.313Z,14.27
2023-04-09T11:31:39.595Z,14.41
2023-04-09T11:32:38.172Z,14.42
2023-04-09T11:33:38.071Z,14.72
2023-04-09T11:34:38.004Z,14.83
2023-04-09T11:35:37.968Z,14.87
2023-04-09T11:36:37.839Z,14.94
2023-04-09T11:37:37.755Z,15.02
2023-04-09T11:38:37.685Z,15.12
2023-04-09T11:39:37.623Z,15.26
2023-04-09T11:40:37.549Z,15.24
2023-04-09T11:41:37.461Z,15.26
2023-04-09T11:42:37.369Z,15.31
2023-04-09T11:43:37.290Z,15.28
2023-04-09T11:44:37.212Z,15.20
2023-04-09T11:45:37.132Z,14.94
2023-04-09T11:46:37.072Z,14.75
2023-04-09T11:47:37.035Z,14.67
2023-04-09T11:48:36.905Z,14.53
2023-04-09T11:49:36.820Z,14.36
2023-04-09T11:50:36.745Z,14.34
2023-04-09T11:51:36.667Z,14.14
2023-04-09T11:52:36.588Z,14.01
2023-04-09T11:53:36.516Z,13.94
2023-04-09T11:54:36.444Z,13.81
2023-04-09T11:55:36.360Z,13.83
2023-04-09T11:56:36.279Z,13.87
2023-04-09T11:57:36.197Z,13.94
2023-04-09T11:58:36.133Z,13.89
2023-04-09T11:59:36.042Z,13.94
2023-04-09T12:00:35.970Z,13.94
2023-04-09T12:01:35.944Z,13.98
2023-04-09T12:02:35.917Z,13.89
2023-04-09T12:03:35.802Z,13.96
2023-04-09T12:04:35.765Z,14.02
2023-04-09T12:05:35.576Z,14.02
2023-04-09T12:06:35.496Z,14.11
2023-04-09T12:07:35.423Z,14.03
2023-04-09T12:08:35.345Z,14.10
2023-04-09T12:09:35.257Z,14.07
2023-04-09T12:10:35.186Z,14.11
2023-04-09T12:11:35.099Z,14.20
2023-04-09T12:12:35.025Z,14.34
2023-04-09T12:13:34.944Z,14.36
2023-04-09T12:14:34.866Z,14.41
2023-04-09T12:15:34.790Z,14.32
2023-04-09T12:16:34.758Z,14.47
2023-04-09T12:17:34.680Z,14.49
2023-04-09T12:18:34.637Z,14.64
2023-04-09T12:19:34.475Z,14.65
2023-04-09T12:20:34.405Z,14.87
2023-04-09T12:21:34.320Z,14.87
2023-04-09T12:22:34.243Z,14.87
2023-04-09T12:23:34.166Z,14.85
2023-04-09T12:24:34.093Z,14.87
2023-04-09T12:25:34.007Z,14.94
2023-04-09T12:26:33.926Z,15.12
2023-04-09T12:27:34.029Z,15.28
2023-04-09T12:28:33.777Z,15.48
2023-04-09T12:29:33.691Z,15.42
2023-04-09T12:30:33.619Z,15.46
2023-04-09T12:31:33.545Z,15.10
2023-04-09T12:32:33.519Z,15.20
2023-04-09T12:33:33.377Z,14.94
2023-04-09T12:34:33.306Z,14.84
2023-04-09T12:35:33.240Z,14.85
2023-04-09T12:36:33.187Z,14.91
2023-04-09T12:37:33.066Z,14.94
2023-04-09T12:38:32.996Z,15.16
2023-04-09T12:39:34.302Z,15.38
2023-04-09T12:40:32.835Z,15.52
2023-04-09T12:41:32.756Z,15.35
2023-04-09T12:42:32.684Z,15.43
2023-04-09T12:43:32.602Z,15.49
2023-04-09T12:44:32.527Z,15.39
2023-04-09T12:45:32.481Z,15.16
2023-04-09T12:46:32.636Z,15.02
2023-04-09T12:47:32.412Z,14.93
2023-04-09T12:48:32.224Z,14.83
2023-04-09T12:49:32.134Z,14.90
2023-04-09T12:50:32.072Z,14.69
2023-04-09T12:51:31.984Z,14.64
2023-04-09T12:52:31.902Z,14.61
2023-04-09T12:53:31.827Z,14.53
2023-04-09T12:54:31.755Z,14.36
2023-04-09T12:55:31.673Z,14.36
2023-04-09T12:56:31.591Z,14.46
2023-04-09T12:57:31.513Z,14.36
2023-04-09T12:58:31.437Z,14.35
2023-04-09T12:59:31.356Z,14.42
2023-04-09T13:00:31.433Z,14.47
2023-04-09T13:01:31.242Z,14.36
2023-04-09T13:02:31.211Z,14.49
2023-04-09T13:03:31.194Z,14.57
2023-04-09T13:04:31.092Z,14.61
2023-04-09T13:05:30.894Z,14.61
2023-04-09T13:06:30.820Z,14.60
2023-04-09T13:07:30.741Z,14.64